Time;durP1;ratioP1;P1;durP2;ratioP2;P2;SDS_P1;SDS_P2;PMS_P1;PMS_P2;Temp;Humidity;BMP_temperature;BMP_pressure;BME280_temperature;BME280_humidity;BME280_pressure;Samples;Min_cycle;Max_cycle;Signal;HPM_P1;HPM_P2
2022/10/11 00:00:31;;;;;;;13.15;6.90;;;12.70;96.80;;;;;;5055386;28;20029;-67
2022/10/11 00:02:57;;;;;;;12.70;7.60;;;12.70;96.80;;;;;;5055614;28;20021;-66
2022/10/11 00:05:23;;;;;;;15.25;7.70;;;12.60;96.70;;;;;;5055485;28;20120;-67
2022/10/11 00:07:49;;;;;;;14.93;8.13;;;12.60;96.70;;;;;;5055034;28;20025;-67
2022/10/11 00:10:14;;;;;;;12.15;6.65;;;12.70;96.80;;;;;;5055443;28;20379;-69
2022/10/11 00:12:40;;;;;;;14.50;6.97;;;12.60;96.70;;;;;;5055174;28;20111;-70
2022/10/11 00:15:07;;;;;;;12.52;7.38;;;12.60;96.60;;;;;;5053142;28;20036;-67
2022/10/11 00:17:33;;;;;;;18.00;7.63;;;12.60;96.70;;;;;;5055168;28;20029;-69
2022/10/11 00:19:59;;;;;;;13.25;7.38;;;12.60;96.70;;;;;;5055021;28;20057;-69
2022/10/11 00:22:24;;;;;;;10.27;6.45;;;12.50;96.40;;;;;;5054928;28;20114;-69
2022/10/11 00:24:51;;;;;;;15.60;6.50;;;12.50;96.50;;;;;;5054877;28;20040;-68
2022/10/11 00:27:17;;;;;;;13.23;6.80;;;12.50;96.80;;;;;;5054903;28;20355;-68
2022/10/11 00:29:42;;;;;;;13.82;7.00;;;12.50;96.60;;;;;;5054759;28;20100;-69
2022/10/11 00:32:08;;;;;;;13.10;6.53;;;12.40;96.50;;;;;;5054929;28;20021;-68
2022/10/11 00:34:33;;;;;;;12.93;6.43;;;12.30;96.70;;;;;;5054212;28;20037;-69
2022/10/11 00:36:59;;;;;;;11.25;6.45;;;12.40;96.90;;;;;;5054790;28;20113;-68
2022/10/11 00:39:24;;;;;;;13.68;6.65;;;12.40;96.90;;;;;;5054698;28;20055;-69
2022/10/11 00:41:50;;;;;;;13.35;6.72;;;12.30;96.60;;;;;;5054655;28;20478;-69
2022/10/11 00:44:22;;;;;;;9.48;5.90;;;12.30;96.80;;;;;;5053398;28;20464;-69
2022/10/11 00:46:58;;;;;;;15.18;6.10;;;12.30;96.90;;;;;;5054726;28;20021;-68
2022/10/11 00:49:34;;;;;;;13.60;6.63;;;12.30;96.90;;;;;;5054474;28;20025;-69
2022/10/11 00:52:10;;;;;;;12.73;6.20;;;12.30;97.00;;;;;;5054733;28;20035;-68
2022/10/11 00:54:40;;;;;;;11.93;6.20;;;12.30;97.20;;;;;;5054156;28;20095;-68
2022/10/11 00:57:10;;;;;;;15.60;6.05;;;12.30;97.10;;;;;;5054428;28;20024;-68
2022/10/11 00:59:41;;;;;;;8.93;5.07;;;12.30;96.80;;;;;;5054165;28;20053;-68
2022/10/11 01:02:08;;;;;;;8.35;5.05;;;12.20;96.70;;;;;;5054265;28;20474;-68
2022/10/11 01:04:33;;;;;;;10.57;5.35;;;12.20;96.70;;;;;;5053802;28;20025;-68
2022/10/11 01:07:00;;;;;;;16.52;5.65;;;12.20;96.90;;;;;;5054265;28;20504;-67
2022/10/11 01:09:26;;;;;;;11.30;4.97;;;12.20;97.00;;;;;;5054093;28;20017;-68
2022/10/11 01:11:54;;;;;;;8.82;4.30;;;12.20;97.10;;;;;;5053887;28;20123;-68
2022/10/11 01:14:52;;;;;;;8.82;4.57;;;12.20;97.00;;;;;;5053858;28;20064;-69
2022/10/11 01:17:29;;;;;;;10.02;5.05;;;12.20;96.80;;;;;;5054116;28;20025;-68
2022/10/11 01:20:27;;;;;;;11.43;5.38;;;12.10;96.90;;;;;;5052278;28;20032;-69
2022/10/11 01:23:01;;;;;;;8.40;4.63;;;12.10;97.00;;;;;;5012836;28;20425;-67
2022/10/11 01:25:39;;;;;;;10.27;4.10;;;12.10;97.10;;;;;;5053840;28;20114;-67
2022/10/11 01:28:38;;;;;;;10.23;4.47;;;12.10;97.10;;;;;;5052633;28;20090;-67
2022/10/11 01:31:23;;;;;;;7.63;4.03;;;12.10;97.00;;;;;;5053725;28;20047;-67
2022/10/11 01:34:04;;;;;;;9.07;4.00;;;12.10;97.00;;;;;;5052130;28;20508;-66
2022/10/11 01:36:45;;;;;;;9.98;4.13;;;12.10;97.10;;;;;;5053623;28;20036;-68
2022/10/11 01:39:21;;;;;;;11.75;4.40;;;12.10;97.10;;;;;;5053544;28;20155;-69
2022/10/11 01:41:50;;;;;;;11.32;4.38;;;12.00;97.10;;;;;;5053620;28;20052;-69
2022/10/11 01:44:15;;;;;;;10.48;4.13;;;12.00;97.20;;;;;;5053587;28;20359;-69
2022/10/11 01:46:41;;;;;;;12.23;4.78;;;12.00;97.10;;;;;;5053364;28;20486;-67
2022/10/11 01:49:07;;;;;;;8.82;3.42;;;12.00;97.10;;;;;;5053246;28;20032;-68
2022/10/11 01:51:51;;;;;;;10.10;4.20;;;12.00;97.10;;;;;;5053506;28;20021;-69
2022/10/11 01:54:17;;;;;;;12.50;4.13;;;12.00;97.10;;;;;;5053436;28;20501;-69
2022/10/11 01:56:54;;;;;;;12.73;4.55;;;11.90;97.20;;;;;;5053244;28;20032;-67
2022/10/11 01:59:44;;;;;;;9.18;3.75;;;11.90;97.20;;;;;;5053775;28;20031;-67
2022/10/11 02:02:22;;;;;;;7.38;4.15;;;11.90;97.30;;;;;;5051564;28;20039;-68
2022/10/11 02:05:07;;;;;;;9.27;4.32;;;11.90;97.20;;;;;;5053018;28;20032;-69
2022/10/11 02:07:49;;;;;;;6.80;3.50;;;11.90;97.00;;;;;;5053084;28;20040;-68
2022/10/11 02:10:24;;;;;;;10.77;4.25;;;11.80;97.00;;;;;;5053297;28;20485;-68
2022/10/11 02:13:00;;;;;;;7.47;3.75;;;11.90;97.10;;;;;;5052995;28;20028;-68
2022/10/11 02:15:29;;;;;;;7.40;3.63;;;11.80;97.10;;;;;;5053035;28;20044;-68
2022/10/11 02:17:57;;;;;;;9.55;3.67;;;11.80;97.10;;;;;;5052759;28;20017;-67
2022/10/11 02:20:25;;;;;;;9.43;3.85;;;11.80;97.00;;;;;;5053053;28;20439;-67
2022/10/11 02:22:58;;;;;;;9.18;3.92;;;11.80;96.90;;;;;;5052876;28;20032;-69
2022/10/11 02:25:27;;;;;;;8.93;3.70;;;11.80;97.00;;;;;;5053040;28;20033;-70
2022/10/11 02:27:57;;;;;;;11.27;4.20;;;11.80;97.10;;;;;;5052786;28;20505;-69
2022/10/11 02:30:23;;;;;;;9.20;3.53;;;11.80;97.20;;;;;;5052999;28;20130;-69
2022/10/11 02:32:50;;;;;;;7.07;3.58;;;11.80;97.30;;;;;;5052211;28;20061;-68
2022/10/11 02:35:16;;;;;;;9.27;3.88;;;11.80;97.10;;;;;;5051820;28;20052;-68
2022/10/11 02:37:57;;;;;;;11.00;4.03;;;11.80;97.20;;;;;;5053514;28;20478;-68
2022/10/11 02:40:29;;;;;;;11.45;3.72;;;11.80;97.20;;;;;;5059468;28;20530;-69
2022/10/11 02:43:04;;;;;;;8.60;3.90;;;11.70;97.30;;;;;;5059050;28;20470;-68
2022/10/11 02:45:36;;;;;;;10.48;3.28;;;11.70;97.30;;;;;;5059093;28;20458;-68
2022/10/11 02:48:02;;;;;;;5.88;3.70;;;11.70;97.30;;;;;;5059266;28;20028;-67
2022/10/11 02:50:28;;;;;;;9.02;3.83;;;11.70;97.40;;;;;;5059542;28;20032;-68
2022/10/11 02:52:53;;;;;;;10.52;4.00;;;11.70;97.40;;;;;;5059174;28;20021;-68
2022/10/11 02:55:19;;;;;;;7.20;3.80;;;11.70;97.40;;;;;;5059190;28;20052;-67
2022/10/11 02:57:45;;;;;;;7.72;3.70;;;11.60;97.50;;;;;;5050704;28;20394;-67
2022/10/11 03:00:11;;;;;;;9.55;3.85;;;11.60;97.60;;;;;;5035518;28;20025;-67
2022/10/11 03:02:37;;;;;;;11.32;4.10;;;11.60;97.60;;;;;;5038740;28;20258;-67
2022/10/11 03:05:03;;;;;;;12.75;4.70;;;11.60;97.60;;;;;;5038978;28;20529;-68
2022/10/11 03:07:28;;;;;;;7.75;4.10;;;11.60;97.60;;;;;;5039110;28;20022;-68
2022/10/11 03:09:54;;;;;;;9.95;4.38;;;11.60;97.70;;;;;;5039293;28;20033;-68
2022/10/11 03:12:19;;;;;;;8.90;4.65;;;11.60;97.60;;;;;;5038912;28;20050;-65
2022/10/11 03:14:45;;;;;;;7.82;4.43;;;11.50;97.70;;;;;;5038832;28;20076;-68
2022/10/11 03:17:10;;;;;;;11.48;4.95;;;11.50;97.70;;;;;;5039163;28;20539;-67
2022/10/11 03:19:36;;;;;;;9.52;4.57;;;11.50;97.80;;;;;;5039284;28;20494;-68
2022/10/11 03:22:01;;;;;;;10.07;4.28;;;11.40;97.70;;;;;;5054333;28;20022;-68
2022/10/11 03:24:27;;;;;;;9.85;4.47;;;11.50;97.90;;;;;;5037729;28;20040;-68
2022/10/11 03:26:52;;;;;;;11.80;4.80;;;11.50;97.90;;;;;;5038938;28;20374;-68
2022/10/11 03:29:18;;;;;;;12.00;4.60;;;11.50;97.90;;;;;;5038680;28;20391;-68
2022/10/11 03:31:43;;;;;;;7.78;3.72;;;11.50;97.70;;;;;;5039091;28;20014;-67
2022/10/11 03:34:09;;;;;;;10.98;4.30;;;11.50;97.70;;;;;;5038052;28;20060;-68
2022/10/11 03:36:35;;;;;;;8.80;4.03;;;11.50;97.80;;;;;;5038927;28;20033;-66
2022/10/11 03:39:02;;;;;;;12.10;4.68;;;11.40;97.80;;;;;;5038850;28;20484;-68
2022/10/11 03:41:27;;;;;;;10.35;4.70;;;11.40;98.00;;;;;;5039399;28;20017;-66
2022/10/11 03:43:53;;;;;;;11.65;4.95;;;11.40;98.10;;;;;;5038436;28;20485;-68
2022/10/11 03:46:18;;;;;;;10.52;5.53;;;11.40;98.20;;;;;;5039112;28;20048;-68
2022/10/11 03:48:44;;;;;;;11.10;4.90;;;11.40;98.00;;;;;;5038726;28;20453;-67
2022/10/11 03:51:11;;;;;;;9.88;4.30;;;11.40;98.10;;;;;;5050244;28;20032;-67
2022/10/11 03:53:37;;;;;;;12.27;4.75;;;11.40;98.00;;;;;;5035699;28;20029;-67
2022/10/11 03:56:05;;;;;;;13.70;5.40;;;11.40;98.10;;;;;;5035585;28;20466;-68
2022/10/11 03:58:30;;;;;;;9.27;4.05;;;11.40;98.10;;;;;;5035188;28;20049;-67
2022/10/11 04:00:56;;;;;;;14.00;4.95;;;11.30;98.00;;;;;;5035641;28;20064;-68
2022/10/11 04:03:21;;;;;;;9.27;4.38;;;11.40;98.20;;;;;;5035483;28;20091;-68
2022/10/11 04:05:47;;;;;;;10.20;4.53;;;11.30;98.20;;;;;;5035917;28;20029;-68
2022/10/11 04:08:12;;;;;;;11.90;5.10;;;11.40;98.20;;;;;;5035306;28;20022;-69
2022/10/11 04:10:39;;;;;;;9.23;4.35;;;11.40;98.20;;;;;;5035374;28;20474;-68
2022/10/11 04:13:04;;;;;;;10.93;4.43;;;11.30;98.20;;;;;;5034963;28;20086;-68
2022/10/11 04:15:30;;;;;;;8.77;4.50;;;11.30;98.20;;;;;;5035310;28;20413;-68
2022/10/11 04:17:56;;;;;;;10.18;4.38;;;11.30;98.40;;;;;;5035229;28;20563;-67
2022/10/11 04:20:21;;;;;;;8.85;4.40;;;11.30;98.10;;;;;;5035031;28;20061;-70
2022/10/11 04:22:47;;;;;;;12.25;4.78;;;11.30;98.10;;;;;;5035218;28;20501;-68
2022/10/11 04:25:13;;;;;;;9.18;4.22;;;11.30;98.10;;;;;;5034995;28;20022;-68
2022/10/11 04:27:38;;;;;;;7.68;4.32;;;11.30;98.20;;;;;;5034969;28;20017;-68
2022/10/11 04:30:05;;;;;;;8.73;4.38;;;11.30;98.20;;;;;;5034998;28;20022;-68
2022/10/11 04:32:31;;;;;;;12.45;4.50;;;11.30;98.30;;;;;;5035019;28;20080;-68
2022/10/11 04:34:57;;;;;;;11.02;4.78;;;11.20;98.10;;;;;;5034694;28;20426;-65
2022/10/11 04:37:22;;;;;;;6.55;4.15;;;11.20;98.20;;;;;;5035008;28;20018;-68
2022/10/11 04:39:48;;;;;;;13.45;4.95;;;11.30;98.20;;;;;;5034855;28;20033;-67
2022/10/11 04:42:13;;;;;;;10.15;4.28;;;11.20;98.10;;;;;;5034552;28;20021;-67
2022/10/11 04:44:39;;;;;;;11.40;4.13;;;11.20;98.10;;;;;;5034497;28;20049;-68
2022/10/11 04:47:04;;;;;;;8.23;4.63;;;11.20;98.10;;;;;;5033511;28;20029;-68
2022/10/11 04:49:30;;;;;;;9.32;4.28;;;11.20;98.10;;;;;;5034720;28;20025;-67
2022/10/11 04:51:55;;;;;;;11.00;5.10;;;11.20;98.50;;;;;;5028997;28;20209;-67
2022/10/11 04:54:21;;;;;;;12.32;4.88;;;11.20;98.20;;;;;;5035880;28;20143;-69
2022/10/11 04:56:46;;;;;;;12.68;4.28;;;11.20;98.20;;;;;;5034381;28;20040;-69
2022/10/11 04:59:12;;;;;;;10.25;4.88;;;11.20;98.30;;;;;;5034094;28;20025;-67
2022/10/11 05:01:38;;;;;;;11.73;4.95;;;11.10;98.30;;;;;;5023858;28;20049;-69
2022/10/11 05:04:03;;;;;;;14.27;5.38;;;11.10;98.30;;;;;;5024994;28;20032;-67
2022/10/11 05:06:29;;;;;;;13.57;5.03;;;11.20;98.40;;;;;;5032890;28;20052;-69
2022/10/11 05:08:54;;;;;;;13.88;5.65;;;11.10;98.30;;;;;;5033103;28;20104;-69
2022/10/11 05:11:20;;;;;;;10.10;5.05;;;11.10;98.30;;;;;;5033777;28;20037;-68
2022/10/11 05:13:46;;;;;;;11.10;5.00;;;11.10;98.30;;;;;;5034184;28;20076;-66
2022/10/11 05:16:14;;;;;;;10.93;5.68;;;11.10;98.20;;;;;;5033758;28;20018;-69
2022/10/11 05:18:40;;;;;;;9.32;5.32;;;11.10;98.40;;;;;;5032930;28;20030;-63
2022/10/11 05:21:14;;;;;;;14.20;5.80;;;11.10;98.40;;;;;;5020947;28;20029;-62
2022/10/11 05:23:39;;;;;;;11.60;6.15;;;11.10;98.20;;;;;;5020132;28;20029;-67
2022/10/11 05:26:05;;;;;;;13.38;5.75;;;11.00;98.10;;;;;;5025078;28;20136;-68
2022/10/11 05:28:31;;;;;;;11.63;5.57;;;10.90;97.90;;;;;;5016588;28;20479;-67
2022/10/11 05:30:56;;;;;;;10.48;5.68;;;10.90;98.00;;;;;;5019454;28;20022;-66
2022/10/11 05:33:22;;;;;;;11.18;5.57;;;10.90;98.10;;;;;;5025634;28;20064;-64
2022/10/11 05:35:48;;;;;;;8.35;5.55;;;10.90;98.20;;;;;;5027865;28;20135;-63
2022/10/11 05:38:13;;;;;;;14.30;6.38;;;10.90;98.10;;;;;;5027016;28;20144;-67
2022/10/11 05:40:39;;;;;;;14.43;6.70;;;10.90;98.00;;;;;;5026545;28;20453;-67
2022/10/11 05:43:05;;;;;;;12.18;5.97;;;10.80;98.10;;;;;;5025636;28;20091;-67
2022/10/11 05:45:34;;;;;;;14.90;6.93;;;11.00;98.60;;;;;;5020379;28;20036;-64
2022/10/11 05:47:59;;;;;;;12.48;5.78;;;11.10;98.50;;;;;;5013639;28;20569;-63
2022/10/11 05:50:25;;;;;;;9.40;5.60;;;11.00;98.90;;;;;;5027193;28;20104;-64
2022/10/11 05:52:50;;;;;;;13.40;6.20;;;11.00;99.10;;;;;;5028449;28;20041;-64
2022/10/11 05:55:16;;;;;;;15.02;6.05;;;11.00;99.10;;;;;;5028338;28;20049;-63
2022/10/11 05:57:43;;;;;;;10.70;5.82;;;11.10;98.30;;;;;;5032461;28;20029;-62
2022/10/11 06:00:09;;;;;;;13.85;8.05;;;11.30;97.80;;;;;;5041893;28;20029;-63
2022/10/11 06:02:35;;;;;;;16.30;10.95;;;11.20;97.60;;;;;;5035844;28;20040;-65
2022/10/11 06:05:01;;;;;;;16.30;10.10;;;11.30;97.40;;;;;;5032179;28;20029;-66
2022/10/11 06:07:26;;;;;;;18.13;9.13;;;11.20;98.10;;;;;;5032281;28;20040;-66
2022/10/11 06:09:52;;;;;;;18.60;9.88;;;11.20;98.20;;;;;;5030469;28;20053;-64
2022/10/11 06:12:17;;;;;;;13.85;9.23;;;11.10;97.90;;;;;;5020884;28;20026;-66
2022/10/11 06:14:43;;;;;;;16.40;8.43;;;11.10;97.90;;;;;;5039159;28;20044;-63
2022/10/11 06:17:09;;;;;;;16.92;8.52;;;11.20;97.70;;;;;;5033158;28;20025;-65
2022/10/11 06:19:35;;;;;;;16.33;7.65;;;11.10;97.80;;;;;;5032339;28;20108;-66
2022/10/11 06:22:01;;;;;;;15.48;8.55;;;11.10;97.80;;;;;;5043344;28;20021;-67
2022/10/11 06:24:26;;;;;;;15.35;8.07;;;11.10;97.60;;;;;;5035337;28;20444;-66
2022/10/11 06:26:52;;;;;;;18.42;9.30;;;11.00;97.80;;;;;;5046045;28;20040;-66
2022/10/11 06:29:18;;;;;;;18.92;8.63;;;11.10;98.10;;;;;;5037328;28;20017;-65
2022/10/11 06:31:44;;;;;;;15.52;8.13;;;11.20;98.00;;;;;;5048181;28;20398;-65
2022/10/11 06:34:09;;;;;;;13.30;8.38;;;11.10;98.00;;;;;;5037215;28;20408;-65
2022/10/11 06:36:35;;;;;;;15.52;8.18;;;11.10;98.30;;;;;;5032452;28;20083;-65
2022/10/11 06:39:01;;;;;;;15.48;9.30;;;11.10;98.50;;;;;;5032444;28;20037;-65
2022/10/11 06:41:29;;;;;;;17.85;9.05;;;11.10;98.70;;;;;;5032400;28;20055;-64
2022/10/11 06:43:55;;;;;;;17.17;9.60;;;11.10;99.10;;;;;;5032703;28;20025;-65
2022/10/11 06:46:24;;;;;;;24.80;9.90;;;11.10;99.30;;;;;;5032432;28;20037;-66
2022/10/11 06:48:50;;;;;;;20.55;11.00;;;11.20;99.20;;;;;;5034342;28;20032;-64
2022/10/11 06:51:18;;;;;;;21.98;11.90;;;11.20;99.20;;;;;;5019956;28;20033;-64
2022/10/11 06:53:52;;;;;;;16.52;10.57;;;11.30;99.30;;;;;;5031874;28;20123;-64
2022/10/11 06:56:18;;;;;;;23.60;11.93;;;11.30;99.40;;;;;;5029867;28;20505;-66
2022/10/11 06:58:43;;;;;;;22.38;10.57;;;11.30;99.30;;;;;;5025732;28;20047;-64
2022/10/11 07:01:12;;;;;;;18.23;11.75;;;11.30;99.40;;;;;;5032301;28;20033;-66
2022/10/11 07:03:37;;;;;;;21.50;13.20;;;11.40;99.60;;;;;;5031286;28;20137;-63
2022/10/11 07:06:09;;;;;;;25.73;15.35;;;11.40;99.50;;;;;;5025930;28;20554;-64
2022/10/11 07:08:35;;;;;;;22.87;15.13;;;11.40;99.50;;;;;;5029616;28;20029;-64
2022/10/11 07:11:09;;;;;;;49.42;14.35;;;11.40;99.50;;;;;;5032381;28;20466;-66
2022/10/11 07:13:35;;;;;;;34.40;12.85;;;11.40;99.60;;;;;;5033516;28;20120;-64
2022/10/11 07:16:03;;;;;;;30.73;12.50;;;11.40;99.90;;;;;;5019046;28;20034;-63
2022/10/11 07:18:29;;;;;;;24.77;11.73;;;11.40;99.90;;;;;;5012124;28;20022;-63
2022/10/11 07:20:54;;;;;;;26.75;12.13;;;11.50;99.90;;;;;;5024558;28;20026;-63
2022/10/11 07:23:20;;;;;;;31.73;12.55;;;11.50;99.90;;;;;;5031722;28;20526;-62
2022/10/11 07:25:46;;;;;;;30.13;12.57;;;11.50;99.90;;;;;;5036228;28;20479;-63
2022/10/11 07:28:12;;;;;;;28.90;11.30;;;11.50;99.90;;;;;;5034353;28;20482;-63
2022/10/11 07:30:39;;;;;;;26.17;11.15;;;11.50;99.90;;;;;;5048442;28;20098;-64
2022/10/11 07:33:04;;;;;;;24.90;11.68;;;11.60;99.90;;;;;;5055982;28;20079;-64
2022/10/11 07:35:32;;;;;;;23.80;11.10;;;11.60;99.90;;;;;;5051082;28;20045;-64
2022/10/11 07:37:58;;;;;;;21.10;11.32;;;11.70;99.90;;;;;;5035676;28;20024;-64
2022/10/11 07:40:23;;;;;;;21.25;11.35;;;11.70;99.90;;;;;;5035345;28;20047;-67
2022/10/11 07:42:49;;;;;;;26.98;12.98;;;11.70;99.90;;;;;;5035729;28;20348;-66
2022/10/11 07:45:14;;;;;;;28.48;12.60;;;11.70;99.90;;;;;;5035263;28;20502;-65
2022/10/11 07:47:40;;;;;;;22.30;11.63;;;11.70;99.90;;;;;;5033195;28;20021;-66
2022/10/11 07:50:06;;;;;;;20.13;11.45;;;11.80;99.90;;;;;;5038807;28;20494;-64
2022/10/11 07:52:34;;;;;;;21.25;11.43;;;11.80;99.90;;;;;;5035363;28;20021;-65
2022/10/11 07:54:59;;;;;;;21.60;11.27;;;11.80;99.90;;;;;;5035482;28;20039;-65
2022/10/11 07:57:25;;;;;;;26.00;11.35;;;11.90;99.90;;;;;;5035376;28;20018;-65
2022/10/11 07:59:50;;;;;;;23.27;11.82;;;11.90;99.90;;;;;;5034926;28;20504;-64
2022/10/11 08:02:16;;;;;;;24.05;12.02;;;11.90;99.90;;;;;;5035335;28;20025;-64
2022/10/11 08:04:41;;;;;;;25.55;11.75;;;11.90;99.90;;;;;;5035024;28;20029;-64
2022/10/11 08:07:07;;;;;;;20.55;11.38;;;12.00;99.90;;;;;;5035324;28;20043;-64
2022/10/11 08:09:32;;;;;;;25.17;11.48;;;12.00;99.90;;;;;;5034882;28;20025;-64
2022/10/11 08:11:58;;;;;;;24.88;11.93;;;12.00;99.90;;;;;;5035178;28;20036;-65
2022/10/11 08:14:23;;;;;;;23.42;11.13;;;12.00;99.90;;;;;;5034653;28;20034;-64
2022/10/11 08:16:49;;;;;;;25.52;12.95;;;12.10;99.90;;;;;;5039627;28;20076;-65
2022/10/11 08:19:15;;;;;;;25.50;12.77;;;12.10;99.90;;;;;;5035448;28;20017;-65
2022/10/11 08:21:40;;;;;;;25.75;12.13;;;12.10;99.90;;;;;;5035037;28;20017;-64
2022/10/11 08:24:07;;;;;;;25.23;12.27;;;12.10;99.90;;;;;;5034891;28;20172;-65
2022/10/11 08:26:33;;;;;;;23.52;11.82;;;12.20;99.90;;;;;;5033604;28;20455;-64
2022/10/11 08:29:17;;;;;;;23.02;11.00;;;12.20;99.90;;;;;;5042941;28;20045;-63
2022/10/11 08:31:45;;;;;;;21.23;11.60;;;12.20;99.90;;;;;;5038778;28;20356;-65
2022/10/11 08:34:11;;;;;;;22.33;11.05;;;12.20;99.90;;;;;;5034365;28;20037;-65
2022/10/11 08:36:37;;;;;;;21.05;11.00;;;12.30;99.90;;;;;;5033809;28;20030;-65
2022/10/11 08:39:04;;;;;;;19.20;10.98;;;12.30;99.90;;;;;;5035001;28;20107;-65
2022/10/11 08:41:41;;;;;;;20.67;10.10;;;12.30;99.90;;;;;;5037144;28;20033;-64
2022/10/11 08:44:22;;;;;;;19.75;9.85;;;12.40;99.90;;;;;;5036283;28;20482;-64
2022/10/11 08:47:10;;;;;;;24.33;8.68;;;12.40;99.90;;;;;;5036920;28;20167;-65
2022/10/11 08:49:38;;;;;;;16.50;7.50;;;12.40;99.90;;;;;;5027794;28;20037;-64
2022/10/11 08:52:26;;;;;;;19.90;7.68;;;12.40;99.90;;;;;;5034252;28;20044;-65
2022/10/11 08:54:58;;;;;;;18.10;8.32;;;12.50;99.90;;;;;;5043128;28;20033;-65
2022/10/11 08:57:28;;;;;;;15.93;6.97;;;12.50;99.90;;;;;;5039112;28;20118;-64
2022/10/11 08:59:57;;;;;;;15.90;7.18;;;12.50;99.90;;;;;;5034225;28;20048;-64
2022/10/11 09:02:39;;;;;;;17.52;6.57;;;12.50;99.90;;;;;;5036354;28;20033;-64
2022/10/11 09:05:09;;;;;;;14.27;5.25;;;12.60;99.90;;;;;;5035418;28;20034;-64
2022/10/11 09:07:55;;;;;;;11.43;4.85;;;12.60;99.90;;;;;;5033805;28;20514;-63
2022/10/11 09:10:55;;;;;;;16.02;6.10;;;12.60;99.90;;;;;;5037444;28;20048;-64
2022/10/11 09:13:42;;;;;;;15.05;6.45;;;12.60;99.90;;;;;;5032505;28;20083;-64
2022/10/11 09:16:46;;;;;;;12.18;5.95;;;12.60;99.90;;;;;;5041793;28;20512;-64
2022/10/11 09:19:44;;;;;;;12.55;4.93;;;12.70;99.90;;;;;;5023838;28;20117;-64
2022/10/11 09:22:21;;;;;;;16.00;5.07;;;12.70;99.90;;;;;;5030699;28;20112;-64
2022/10/11 09:25:04;;;;;;;11.07;4.38;;;12.70;99.90;;;;;;5032543;28;20430;-64
2022/10/11 09:27:36;;;;;;;9.20;3.65;;;12.70;99.90;;;;;;5038413;28;20021;-64
2022/10/11 09:30:10;;;;;;;;;;;12.80;99.90;;;;;;5038745;28;20022;-63
2022/10/11 09:32:38;;;;;;;14.05;3.78;;;12.70;99.70;;;;;;5033506;28;19951;-64
2022/10/11 09:35:19;;;;;;;12.48;4.13;;;12.80;99.70;;;;;;5037568;28;20033;-65
2022/10/11 09:38:10;;;;;;;29.13;5.88;;;12.80;99.80;;;;;;5031568;28;20036;-64
2022/10/11 09:40:59;;;;;;;12.55;2.53;;;12.80;99.80;;;;;;5030874;28;20029;-65
2022/10/11 09:43:25;;;;;;;9.93;2.58;;;12.90;99.40;;;;;;5043129;28;20039;-64
2022/10/11 09:45:50;;;;;;;8.85;3.10;;;12.90;99.60;;;;;;5027616;28;20030;-64
2022/10/11 09:48:21;;;;;;;10.82;3.22;;;12.90;99.60;;;;;;5035568;28;20024;-64
2022/10/11 09:50:48;;;;;;;10.63;2.63;;;12.90;99.70;;;;;;5025388;28;20095;-63
2022/10/11 09:53:14;;;;;;;13.30;2.63;;;12.90;99.80;;;;;;5036730;28;20037;-65
2022/10/11 09:55:59;;;;;;;10.18;2.80;;;12.90;99.70;;;;;;5032633;28;20033;-65
2022/10/11 09:58:34;;;;;;;12.48;2.55;;;13.00;99.40;;;;;;5013436;28;20472;-65
2022/10/11 10:01:01;;;;;;;10.75;2.40;;;13.00;99.20;;;;;;5013311;28;20022;-65
2022/10/11 10:03:32;;;;;;;13.70;2.30;;;13.00;99.00;;;;;;5043232;28;20423;-63
2022/10/11 10:06:22;;;;;;;14.07;2.67;;;13.00;98.50;;;;;;5052760;28;20036;-65
2022/10/11 10:08:49;;;;;;;7.95;2.05;;;13.10;98.50;;;;;;5038371;28;20025;-65
2022/10/11 10:11:16;;;;;;;13.35;3.00;;;13.10;99.00;;;;;;5038070;28;20021;-64
2022/10/11 10:13:50;;;;;;;14.55;2.63;;;13.10;98.90;;;;;;5052918;28;20081;-66
2022/10/11 10:16:29;;;;;;;12.05;2.28;;;13.10;98.50;;;;;;5052620;28;20037;-64
2022/10/11 10:19:00;;;;;;;12.70;1.90;;;13.10;98.60;;;;;;5040639;28;20025;-65
2022/10/11 10:21:30;;;;;;;13.27;2.20;;;13.10;98.20;;;;;;5033016;28;20074;-65
2022/10/11 10:24:01;;;;;;;10.40;2.17;;;13.20;97.60;;;;;;5032918;28;20065;-65
2022/10/11 10:26:27;;;;;;;15.25;2.70;;;13.20;97.10;;;;;;5032797;28;20034;-65
2022/10/11 10:28:53;;;;;;;7.43;2.08;;;13.20;97.00;;;;;;5032856;28;20413;-63
2022/10/11 10:31:28;;;;;;;8.90;2.15;;;13.20;97.50;;;;;;5032539;28;20029;-64
2022/10/11 10:33:56;;;;;;;7.88;2.33;;;13.30;98.30;;;;;;5032450;28;20018;-65
2022/10/11 10:36:28;;;;;;;8.32;2.47;;;13.30;98.00;;;;;;5037177;28;20048;-64
2022/10/11 10:39:05;;;;;;;8.10;2.13;;;13.30;97.80;;;;;;5047978;28;20360;-64
2022/10/11 10:41:31;;;;;;;9.15;2.42;;;13.30;98.10;;;;;;5031855;28;20493;-64
2022/10/11 10:43:59;;;;;;;11.18;2.30;;;13.30;98.10;;;;;;5034576;28;20029;-64
2022/10/11 10:46:55;;;;;;;10.13;2.42;;;13.40;98.70;;;;;;5029315;28;20232;-64
2022/10/11 10:49:41;;;;;;;6.45;1.58;;;13.40;98.70;;;;;;5029948;28;20104;-64
2022/10/11 10:52:06;;;;;;;8.38;2.20;;;13.40;98.60;;;;;;5031962;28;20025;-64
2022/10/11 10:54:35;;;;;;;8.27;2.00;;;13.40;98.20;;;;;;5032484;28;20043;-63
2022/10/11 10:57:15;;;;;;;9.75;1.95;;;13.50;97.80;;;;;;5032361;28;20060;-64
2022/10/11 11:00:01;;;;;;;9.65;2.45;;;13.50;97.50;;;;;;5036429;28;20489;-64
2022/10/11 11:02:58;;;;;;;14.15;2.40;;;13.50;97.60;;;;;;5037140;28;20386;-64
2022/10/11 11:05:36;;;;;;;9.50;1.90;;;13.50;96.20;;;;;;5036417;28;20033;-64
2022/10/11 11:08:14;;;;;;;13.90;2.47;;;13.50;95.80;;;;;;5039556;28;20028;-64
2022/10/11 11:10:51;;;;;;;8.73;1.50;;;13.50;96.20;;;;;;5034664;28;20029;-64
2022/10/11 11:13:40;;;;;;;7.68;1.85;;;13.50;96.50;;;;;;5033248;28;20021;-63
2022/10/11 11:16:16;;;;;;;8.60;2.45;;;13.60;96.80;;;;;;5022044;28;20053;-65
2022/10/11 11:19:07;;;;;;;10.90;1.98;;;13.60;97.20;;;;;;5032817;28;20032;-64
2022/10/11 11:21:51;;;;;;;9.60;2.03;;;13.60;96.80;;;;;;5022743;28;20024;-65
2022/10/11 11:24:32;;;;;;;10.70;2.40;;;13.70;96.00;;;;;;5038515;28;20029;-64
2022/10/11 11:27:20;;;;;;;9.70;1.77;;;13.70;95.60;;;;;;5036777;28;20034;-64
2022/10/11 11:29:55;;;;;;;9.30;1.80;;;13.70;96.40;;;;;;5035411;28;20155;-64
2022/10/11 11:32:30;;;;;;;9.07;1.80;;;13.70;95.80;;;;;;5033560;28;20029;-64
2022/10/11 11:35:03;;;;;;;11.30;1.80;;;13.70;95.10;;;;;;5030461;28;20065;-64
2022/10/11 11:37:39;;;;;;;10.50;2.28;;;13.80;94.60;;;;;;5034487;28;20573;-64
2022/10/11 11:40:34;;;;;;;11.38;2.15;;;13.80;94.20;;;;;;5029830;28;20037;-63
2022/10/11 11:43:32;;;;;;;8.10;1.92;;;13.80;94.40;;;;;;5034084;28;20463;-64
2022/10/11 11:46:13;;;;;;;10.80;1.90;;;13.80;93.90;;;;;;5041603;28;20069;-65
2022/10/11 11:48:40;;;;;;;12.23;1.90;;;13.80;94.20;;;;;;5033414;28;20056;-63
2022/10/11 11:51:24;;;;;;;9.05;1.70;;;13.80;93.60;;;;;;5034935;28;20021;-64
2022/10/11 11:54:07;;;;;;;8.45;1.48;;;13.80;93.50;;;;;;5031926;28;20018;-63
2022/10/11 11:57:14;;;;;;;9.98;2.13;;;13.90;94.10;;;;;;5023558;28;20037;-64
2022/10/11 11:59:57;;;;;;;6.85;1.40;;;13.90;94.10;;;;;;5020453;28;20045;-63
2022/10/11 12:02:42;;;;;;;;;;;13.90;94.90;;;;;;5015601;28;20022;-65
2022/10/11 12:05:09;;;;;;;5.15;1.58;;;13.90;95.50;;;;;;5035221;28;19917;-64
2022/10/11 12:07:59;;;;;;;6.88;1.80;;;13.90;96.10;;;;;;5039445;28;20846;-64
2022/10/11 12:10:30;;;;;;;9.20;1.92;;;14.00;95.70;;;;;;5033214;28;20501;-64
2022/10/11 12:13:05;;;;;;;8.63;1.65;;;14.00;95.40;;;;;;5034593;28;20474;-64
2022/10/11 12:15:31;;;;;;;8.35;1.70;;;14.00;95.30;;;;;;5047727;28;20072;-65
2022/10/11 12:18:13;;;;;;;7.80;2.15;;;14.00;95.00;;;;;;5028867;28;20375;-65
2022/10/11 12:20:40;;;;;;;7.60;1.60;;;14.10;93.80;;;;;;5033237;28;20033;-65
2022/10/11 12:23:37;;;;;;;8.38;1.85;;;14.10;95.40;;;;;;5034811;28;20280;-64
2022/10/11 12:26:32;;;;;;;9.32;1.95;;;14.10;96.10;;;;;;5034143;28;20479;-64
2022/10/11 12:29:03;;;;;;;7.93;1.88;;;14.10;93.80;;;;;;5019914;28;20040;-65
2022/10/11 12:31:32;;;;;;;5.25;1.42;;;14.10;94.60;;;;;;5015409;28;20028;-65
2022/10/11 12:34:00;;;;;;;10.55;1.77;;;14.20;95.90;;;;;;5038116;28;20075;-65
2022/10/11 12:36:41;;;;;;;8.23;1.70;;;14.20;94.90;;;;;;5032178;28;20049;-65
2022/10/11 12:39:19;;;;;;;8.77;1.42;;;14.20;94.10;;;;;;5033379;28;20045;-64
2022/10/11 12:41:52;;;;;;;7.15;1.65;;;14.20;93.20;;;;;;5034271;28;20033;-65
2022/10/11 12:44:17;;;;;;;12.57;2.30;;;14.30;92.30;;;;;;5034442;28;20029;-64
2022/10/11 12:46:49;;;;;;;8.68;2.28;;;14.30;92.50;;;;;;5036800;28;20123;-65
2022/10/11 12:49:31;;;;;;;6.20;1.52;;;14.30;93.40;;;;;;5032849;28;20064;-64
2022/10/11 12:51:59;;;;;;;7.25;1.35;;;14.30;95.10;;;;;;5037440;28;20483;-65
2022/10/11 12:54:34;;;;;;;6.13;1.20;;;14.40;95.50;;;;;;5049202;28;20064;-65
2022/10/11 12:57:33;;;;;;;7.15;1.90;;;14.40;95.80;;;;;;5031962;28;20034;-65